sensor_id;sensor_type;location;lat;lon;timestamp;temperature;humidity
22379;DHT22;11357;49.990;7.370;2024-01-10T00:01:23;-1.60;57.90
22379;DHT22;11357;49.990;7.370;2024-01-10T00:03:53;-1.60;57.90
22379;DHT22;11357;49.990;7.370;2024-01-10T00:06:19;-1.60;58.00
22379;DHT22;11357;49.990;7.370;2024-01-10T00:08:44;-1.70;58.00
22379;DHT22;11357;49.990;7.370;2024-01-10T00:11:10;-1.70;58.00
22379;DHT22;11357;49.990;7.370;2024-01-10T00:13:36;-1.70;58.20
22379;DHT22;11357;49.990;7.370;2024-01-10T00:16:01;-1.70;58.20
22379;DHT22;11357;49.990;7.370;2024-01-10T00:18:27;-1.70;58.20
22379;DHT22;11357;49.990;7.370;2024-01-10T00:20:53;-1.70;58.30
22379;DHT22;11357;49.990;7.370;2024-01-10T00:23:22;-1.70;58.30
22379;DHT22;11357;49.990;7.370;2024-01-10T00:25:48;-1.80;58.40
22379;DHT22;11357;49.990;7.370;2024-01-10T00:28:14;-1.80;58.50
22379;DHT22;11357;49.990;7.370;2024-01-10T00:30:42;-1.80;58.50
22379;DHT22;11357;49.990;7.370;2024-01-10T00:33:07;-1.80;58.60
22379;DHT22;11357;49.990;7.370;2024-01-10T00:35:33;-1.80;58.70
22379;DHT22;11357;49.990;7.370;2024-01-10T00:37:59;-1.90;58.60
22379;DHT22;11357;49.990;7.370;2024-01-10T00:40:25;-1.90;58.70
22379;DHT22;11357;49.990;7.370;2024-01-10T00:42:50;-1.90;58.80
22379;DHT22;11357;49.990;7.370;2024-01-10T00:45:16;-1.90;58.80
22379;DHT22;11357;49.990;7.370;2024-01-10T00:47:42;-2.00;58.80
22379;DHT22;11357;49.990;7.370;2024-01-10T00:50:08;-2.00;58.80
22379;DHT22;11357;49.990;7.370;2024-01-10T00:52:34;-2.00;58.90
22379;DHT22;11357;49.990;7.370;2024-01-10T00:55:00;-2.00;58.90
22379;DHT22;11357;49.990;7.370;2024-01-10T00:57:26;-2.00;59.00
22379;DHT22;11357;49.990;7.370;2024-01-10T00:59:51;-2.00;59.00
22379;DHT22;11357;49.990;7.370;2024-01-10T01:02:17;-2.00;59.00
22379;DHT22;11357;49.990;7.370;2024-01-10T01:04:43;-2.00;59.00
22379;DHT22;11357;49.990;7.370;2024-01-10T01:07:08;-2.00;59.00
22379;DHT22;11357;49.990;7.370;2024-01-10T01:09:34;-2.00;59.00
22379;DHT22;11357;49.990;7.370;2024-01-10T01:12:00;-2.00;59.00
22379;DHT22;11357;49.990;7.370;2024-01-10T01:14:25;-2.00;59.00
22379;DHT22;11357;49.990;7.370;2024-01-10T01:16:51;-1.90;59.00
22379;DHT22;11357;49.990;7.370;2024-01-10T01:19:17;-1.90;59.00
22379;DHT22;11357;49.990;7.370;2024-01-10T01:21:43;-1.90;58.80
22379;DHT22;11357;49.990;7.370;2024-01-10T01:24:08;-1.80;58.90
22379;DHT22;11357;49.990;7.370;2024-01-10T01:26:34;-1.80;58.80
22379;DHT22;11357;49.990;7.370;2024-01-10T01:29:00;-1.80;58.70
22379;DHT22;11357;49.990;7.370;2024-01-10T01:31:26;-1.70;58.70
22379;DHT22;11357;49.990;7.370;2024-01-10T01:33:51;-1.70;58.70
22379;DHT22;11357;49.990;7.370;2024-01-10T01:36:17;-1.70;58.80
22379;DHT22;11357;49.990;7.370;2024-01-10T01:38:43;-1.80;58.90
22379;DHT22;11357;49.990;7.370;2024-01-10T01:41:09;-1.80;59.20
22379;DHT22;11357;49.990;7.370;2024-01-10T01:43:35;-1.90;59.50
22379;DHT22;11357;49.990;7.370;2024-01-10T01:46:00;-1.90;59.70
22379;DHT22;11357;49.990;7.370;2024-01-10T01:48:27;-1.90;59.90
22379;DHT22;11357;49.990;7.370;2024-01-10T01:51:01;-1.90;60.20
22379;DHT22;11357;49.990;7.370;2024-01-10T01:53:28;-2.00;60.30
22379;DHT22;11357;49.990;7.370;2024-01-10T01:55:57;-2.00;60.60
22379;DHT22;11357;49.990;7.370;2024-01-10T01:58:24;-2.00;60.90
22379;DHT22;11357;49.990;7.370;2024-01-10T02:00:50;-2.00;61.20
22379;DHT22;11357;49.990;7.370;2024-01-10T02:03:16;-2.00;61.40
22379;DHT22;11357;49.990;7.370;2024-01-10T02:05:42;-2.10;61.50
22379;DHT22;11357;49.990;7.370;2024-01-10T02:08:08;-2.10;61.70
22379;DHT22;11357;49.990;7.370;2024-01-10T02:10:34;-2.20;61.80
22379;DHT22;11357;49.990;7.370;2024-01-10T02:13:01;-2.20;62.10
22379;DHT22;11357;49.990;7.370;2024-01-10T02:15:27;-2.20;62.20
22379;DHT22;11357;49.990;7.370;2024-01-10T02:17:52;-2.30;62.10
22379;DHT22;11357;49.990;7.370;2024-01-10T02:20:18;-2.40;62.10
22379;DHT22;11357;49.990;7.370;2024-01-10T02:22:46;-2.40;62.00
22379;DHT22;11357;49.990;7.370;2024-01-10T02:25:13;-2.40;62.00
22379;DHT22;11357;49.990;7.370;2024-01-10T02:27:40;-2.40;61.90
22379;DHT22;11357;49.990;7.370;2024-01-10T02:30:07;-2.30;61.80
22379;DHT22;11357;49.990;7.370;2024-01-10T02:32:33;-2.30;61.60
22379;DHT22;11357;49.990;7.370;2024-01-10T02:34:59;-2.30;61.60
22379;DHT22;11357;49.990;7.370;2024-01-10T02:37:25;-2.30;61.50
22379;DHT22;11357;49.990;7.370;2024-01-10T02:39:50;-2.30;61.40
22379;DHT22;11357;49.990;7.370;2024-01-10T02:42:16;-2.30;61.40
22379;DHT22;11357;49.990;7.370;2024-01-10T02:44:42;-2.30;61.40
22379;DHT22;11357;49.990;7.370;2024-01-10T02:47:08;-2.30;61.40
22379;DHT22;11357;49.990;7.370;2024-01-10T02:49:34;-2.20;61.30
22379;DHT22;11357;49.990;7.370;2024-01-10T02:52:00;-2.20;61.30
22379;DHT22;11357;49.990;7.370;2024-01-10T02:54:25;-2.20;61.20
22379;DHT22;11357;49.990;7.370;2024-01-10T02:56:51;-2.20;61.10
22379;DHT22;11357;49.990;7.370;2024-01-10T02:59:17;-2.20;61.10
22379;DHT22;11357;49.990;7.370;2024-01-10T03:01:43;-2.20;60.90
22379;DHT22;11357;49.990;7.370;2024-01-10T03:04:09;-2.20;60.80
22379;DHT22;11357;49.990;7.370;2024-01-10T03:06:34;-2.10;61.50
22379;DHT22;11357;49.990;7.370;2024-01-10T03:09:00;-2.10;60.70
22379;DHT22;11357;49.990;7.370;2024-01-10T03:11:26;-2.10;60.70
22379;DHT22;11357;49.990;7.370;2024-01-10T03:14:04;-2.10;60.60
22379;DHT22;11357;49.990;7.370;2024-01-10T03:16:32;-2.10;60.50
22379;DHT22;11357;49.990;7.370;2024-01-10T03:18:58;-2.10;60.40
22379;DHT22;11357;49.990;7.370;2024-01-10T03:21:24;-2.00;60.30
22379;DHT22;11357;49.990;7.370;2024-01-10T03:23:55;-2.00;60.30
22379;DHT22;11357;49.990;7.370;2024-01-10T03:26:20;-2.00;60.10
22379;DHT22;11357;49.990;7.370;2024-01-10T03:28:46;-2.00;60.10
22379;DHT22;11357;49.990;7.370;2024-01-10T03:31:12;-1.90;60.00
22379;DHT22;11357;49.990;7.370;2024-01-10T03:33:37;-1.90;60.00
22379;DHT22;11357;49.990;7.370;2024-01-10T03:36:04;-1.90;60.00
22379;DHT22;11357;49.990;7.370;2024-01-10T03:38:30;-1.90;59.90
22379;DHT22;11357;49.990;7.370;2024-01-10T03:40:56;-1.90;59.90
22379;DHT22;11357;49.990;7.370;2024-01-10T03:43:21;-1.90;59.90
22379;DHT22;11357;49.990;7.370;2024-01-10T03:45:47;-1.90;59.80
22379;DHT22;11357;49.990;7.370;2024-01-10T03:48:13;-1.90;59.80
22379;DHT22;11357;49.990;7.370;2024-01-10T03:50:38;-1.90;60.00
22379;DHT22;11357;49.990;7.370;2024-01-10T03:53:04;-1.90;60.00
22379;DHT22;11357;49.990;7.370;2024-01-10T03:55:29;-1.90;60.00
22379;DHT22;11357;49.990;7.370;2024-01-10T03:57:56;-2.00;60.20
22379;DHT22;11357;49.990;7.370;2024-01-10T04:00:22;-1.90;60.20
22379;DHT22;11357;49.990;7.370;2024-01-10T04:02:48;-2.00;60.20
22379;DHT22;11357;49.990;7.370;2024-01-10T04:05:13;-2.00;60.30
22379;DHT22;11357;49.990;7.370;2024-01-10T04:07:40;-2.00;60.30
22379;DHT22;11357;49.990;7.370;2024-01-10T04:10:10;-2.00;60.30
22379;DHT22;11357;49.990;7.370;2024-01-10T04:12:36;-2.00;60.30
22379;DHT22;11357;49.990;7.370;2024-01-10T04:15:03;-2.00;60.30
22379;DHT22;11357;49.990;7.370;2024-01-10T04:17:29;-2.00;60.30
22379;DHT22;11357;49.990;7.370;2024-01-10T04:19:55;-2.00;60.30
22379;DHT22;11357;49.990;7.370;2024-01-10T04:22:21;-2.00;60.30
22379;DHT22;11357;49.990;7.370;2024-01-10T04:24:47;-2.00;60.30
22379;DHT22;11357;49.990;7.370;2024-01-10T04:27:12;-2.00;60.30
22379;DHT22;11357;49.990;7.370;2024-01-10T04:29:38;-1.90;60.30
22379;DHT22;11357;49.990;7.370;2024-01-10T04:32:04;-1.90;60.20
22379;DHT22;11357;49.990;7.370;2024-01-10T04:34:30;-1.80;60.20
22379;DHT22;11357;49.990;7.370;2024-01-10T04:36:55;-1.90;60.10
22379;DHT22;11357;49.990;7.370;2024-01-10T04:39:21;-1.90;60.00
22379;DHT22;11357;49.990;7.370;2024-01-10T04:41:47;-1.90;60.00
22379;DHT22;11357;49.990;7.370;2024-01-10T04:44:12;-1.80;60.10
22379;DHT22;11357;49.990;7.370;2024-01-10T04:46:38;-1.80;60.10
22379;DHT22;11357;49.990;7.370;2024-01-10T04:49:03;-1.80;60.10
22379;DHT22;11357;49.990;7.370;2024-01-10T04:51:29;-1.80;60.00
22379;DHT22;11357;49.990;7.370;2024-01-10T04:53:55;-1.90;60.00
22379;DHT22;11357;49.990;7.370;2024-01-10T04:56:21;-1.80;60.10
22379;DHT22;11357;49.990;7.370;2024-01-10T04:58:46;-1.80;60.00
22379;DHT22;11357;49.990;7.370;2024-01-10T05:01:12;-1.80;60.00
22379;DHT22;11357;49.990;7.370;2024-01-10T05:03:38;-1.70;60.00
22379;DHT22;11357;49.990;7.370;2024-01-10T05:06:04;-1.70;59.80
22379;DHT22;11357;49.990;7.370;2024-01-10T05:08:30;-1.70;59.80
22379;DHT22;11357;49.990;7.370;2024-01-10T05:10:56;-1.70;59.80
22379;DHT22;11357;49.990;7.370;2024-01-10T05:13:21;-1.70;59.80
22379;DHT22;11357;49.990;7.370;2024-01-10T05:15:47;-1.60;59.70
22379;DHT22;11357;49.990;7.370;2024-01-10T05:18:12;-1.60;59.70
22379;DHT22;11357;49.990;7.370;2024-01-10T05:20:38;-1.60;59.60
22379;DHT22;11357;49.990;7.370;2024-01-10T05:23:04;-1.60;59.60
22379;DHT22;11357;49.990;7.370;2024-01-10T05:25:30;-1.50;59.60
22379;DHT22;11357;49.990;7.370;2024-01-10T05:27:56;-1.50;59.50
22379;DHT22;11357;49.990;7.370;2024-01-10T05:30:21;-1.50;59.50
22379;DHT22;11357;49.990;7.370;2024-01-10T05:32:47;-1.40;59.50
22379;DHT22;11357;49.990;7.370;2024-01-10T05:35:13;-1.40;59.40
22379;DHT22;11357;49.990;7.370;2024-01-10T05:37:38;-1.30;59.40
22379;DHT22;11357;49.990;7.370;2024-01-10T05:40:04;-1.30;59.30
22379;DHT22;11357;49.990;7.370;2024-01-10T05:42:31;-1.30;59.30
22379;DHT22;11357;49.990;7.370;2024-01-10T05:44:59;-1.30;59.20
22379;DHT22;11357;49.990;7.370;2024-01-10T05:47:24;-1.20;59.30
22379;DHT22;11357;49.990;7.370;2024-01-10T05:49:51;-1.20;59.30
22379;DHT22;11357;49.990;7.370;2024-01-10T05:52:18;-1.20;59.20
22379;DHT22;11357;49.990;7.370;2024-01-10T05:54:45;-1.10;59.10
22379;DHT22;11357;49.990;7.370;2024-01-10T05:57:10;-1.20;59.00
22379;DHT22;11357;49.990;7.370;2024-01-10T05:59:36;-1.20;59.10
22379;DHT22;11357;49.990;7.370;2024-01-10T06:02:02;-1.20;59.20
22379;DHT22;11357;49.990;7.370;2024-01-10T06:04:28;-1.20;59.30
22379;DHT22;11357;49.990;7.370;2024-01-10T06:06:59;-1.20;59.30
22379;DHT22;11357;49.990;7.370;2024-01-10T06:09:25;-1.20;59.40
22379;DHT22;11357;49.990;7.370;2024-01-10T06:11:51;-1.10;59.40
22379;DHT22;11357;49.990;7.370;2024-01-10T06:14:17;-1.10;59.50
22379;DHT22;11357;49.990;7.370;2024-01-10T06:16:43;-1.10;59.50
22379;DHT22;11357;49.990;7.370;2024-01-10T06:19:13;-1.10;59.40
22379;DHT22;11357;49.990;7.370;2024-01-10T06:21:38;-1.00;59.40
22379;DHT22;11357;49.990;7.370;2024-01-10T06:24:05;-0.90;59.50
22379;DHT22;11357;49.990;7.370;2024-01-10T06:26:31;-0.90;59.40
22379;DHT22;11357;49.990;7.370;2024-01-10T06:28:57;-0.90;59.30
22379;DHT22;11357;49.990;7.370;2024-01-10T06:31:23;-0.90;59.20
22379;DHT22;11357;49.990;7.370;2024-01-10T06:33:49;-0.90;59.20
22379;DHT22;11357;49.990;7.370;2024-01-10T06:36:14;-0.90;59.30
22379;DHT22;11357;49.990;7.370;2024-01-10T06:38:40;-0.90;59.20
22379;DHT22;11357;49.990;7.370;2024-01-10T06:41:09;-0.90;59.30
22379;DHT22;11357;49.990;7.370;2024-01-10T06:43:38;-0.90;59.20
22379;DHT22;11357;49.990;7.370;2024-01-10T06:46:04;-0.90;59.20
22379;DHT22;11357;49.990;7.370;2024-01-10T06:48:29;-0.90;59.30
22379;DHT22;11357;49.990;7.370;2024-01-10T06:50:57;-0.90;59.10
22379;DHT22;11357;49.990;7.370;2024-01-10T06:53:22;-1.00;59.10
22379;DHT22;11357;49.990;7.370;2024-01-10T06:55:48;-1.00;59.10
22379;DHT22;11357;49.990;7.370;2024-01-10T06:58:14;-1.00;59.10
22379;DHT22;11357;49.990;7.370;2024-01-10T07:00:39;-1.00;59.20
22379;DHT22;11357;49.990;7.370;2024-01-10T07:03:05;-1.00;59.20
22379;DHT22;11357;49.990;7.370;2024-01-10T07:05:31;-1.00;59.30
22379;DHT22;11357;49.990;7.370;2024-01-10T07:08:00;-1.00;59.20
22379;DHT22;11357;49.990;7.370;2024-01-10T07:10:28;-1.00;59.20
22379;DHT22;11357;49.990;7.370;2024-01-10T07:12:55;-1.00;59.20
22379;DHT22;11357;49.990;7.370;2024-01-10T07:15:21;-1.00;59.20
22379;DHT22;11357;49.990;7.370;2024-01-10T07:17:47;-0.90;59.20
22379;DHT22;11357;49.990;7.370;2024-01-10T07:20:13;-0.90;59.20
22379;DHT22;11357;49.990;7.370;2024-01-10T07:22:39;-0.90;59.20
22379;DHT22;11357;49.990;7.370;2024-01-10T07:25:10;-0.80;59.20
22379;DHT22;11357;49.990;7.370;2024-01-10T07:27:42;-0.80;59.00
22379;DHT22;11357;49.990;7.370;2024-01-10T07:30:08;-0.70;59.10
22379;DHT22;11357;49.990;7.370;2024-01-10T07:32:45;-0.70;59.00
22379;DHT22;11357;49.990;7.370;2024-01-10T07:35:12;-0.70;58.90
22379;DHT22;11357;49.990;7.370;2024-01-10T07:37:39;-0.60;58.90
22379;DHT22;11357;49.990;7.370;2024-01-10T07:40:07;-0.60;58.80
22379;DHT22;11357;49.990;7.370;2024-01-10T07:42:33;-0.60;59.20
22379;DHT22;11357;49.990;7.370;2024-01-10T07:45:00;-0.60;58.80
22379;DHT22;11357;49.990;7.370;2024-01-10T07:47:26;-0.60;58.80
22379;DHT22;11357;49.990;7.370;2024-01-10T07:49:52;-0.60;58.80
22379;DHT22;11357;49.990;7.370;2024-01-10T07:52:18;-0.60;58.70
22379;DHT22;11357;49.990;7.370;2024-01-10T07:54:44;-0.60;58.70
22379;DHT22;11357;49.990;7.370;2024-01-10T07:57:10;-0.60;59.40
22379;DHT22;11357;49.990;7.370;2024-01-10T07:59:36;-0.60;58.80
22379;DHT22;11357;49.990;7.370;2024-01-10T08:02:02;-0.60;58.80
22379;DHT22;11357;49.990;7.370;2024-01-10T08:04:27;-0.60;58.90
22379;DHT22;11357;49.990;7.370;2024-01-10T08:06:53;-0.70;58.90
22379;DHT22;11357;49.990;7.370;2024-01-10T08:09:19;-0.70;59.10
22379;DHT22;11357;49.990;7.370;2024-01-10T08:11:45;-0.70;59.20
22379;DHT22;11357;49.990;7.370;2024-01-10T08:14:11;-0.80;59.20
22379;DHT22;11357;49.990;7.370;2024-01-10T08:16:37;-0.80;59.40
22379;DHT22;11357;49.990;7.370;2024-01-10T08:19:03;-0.80;59.50
22379;DHT22;11357;49.990;7.370;2024-01-10T08:21:29;-0.70;59.50
22379;DHT22;11357;49.990;7.370;2024-01-10T08:23:54;-0.60;59.60
22379;DHT22;11357;49.990;7.370;2024-01-10T08:26:20;-0.60;59.50
22379;DHT22;11357;49.990;7.370;2024-01-10T08:28:46;-0.60;59.50
22379;DHT22;11357;49.990;7.370;2024-01-10T08:31:11;-0.50;59.50
22379;DHT22;11357;49.990;7.370;2024-01-10T08:33:38;-0.50;59.30
22379;DHT22;11357;49.990;7.370;2024-01-10T08:36:05;-0.50;59.20
22379;DHT22;11357;49.990;7.370;2024-01-10T08:38:30;-0.40;59.30
22379;DHT22;11357;49.990;7.370;2024-01-10T08:40:56;-0.30;59.30
22379;DHT22;11357;49.990;7.370;2024-01-10T08:43:22;-0.30;59.10
22379;DHT22;11357;49.990;7.370;2024-01-10T08:45:48;-0.10;59.10
22379;DHT22;11357;49.990;7.370;2024-01-10T08:48:14;0.00;58.90
22379;DHT22;11357;49.990;7.370;2024-01-10T08:50:39;0.10;59.50
22379;DHT22;11357;49.990;7.370;2024-01-10T08:53:05;0.10;58.80
22379;DHT22;11357;49.990;7.370;2024-01-10T08:55:34;0.10;58.80
22379;DHT22;11357;49.990;7.370;2024-01-10T08:58:03;0.10;58.80
22379;DHT22;11357;49.990;7.370;2024-01-10T09:00:28;0.10;58.80
22379;DHT22;11357;49.990;7.370;2024-01-10T09:02:55;0.10;58.80
22379;DHT22;11357;49.990;7.370;2024-01-10T09:05:20;0.10;58.70
22379;DHT22;11357;49.990;7.370;2024-01-10T09:07:47;0.10;58.60
22379;DHT22;11357;49.990;7.370;2024-01-10T09:10:13;0.10;58.70
22379;DHT22;11357;49.990;7.370;2024-01-10T09:12:39;0.10;59.30
22379;DHT22;11357;49.990;7.370;2024-01-10T09:15:05;0.20;58.60
22379;DHT22;11357;49.990;7.370;2024-01-10T09:17:33;0.20;58.60
22379;DHT22;11357;49.990;7.370;2024-01-10T09:19:59;0.20;58.60
22379;DHT22;11357;49.990;7.370;2024-01-10T09:22:27;0.30;58.60
22379;DHT22;11357;49.990;7.370;2024-01-10T09:24:53;0.30;58.40
22379;DHT22;11357;49.990;7.370;2024-01-10T09:27:19;0.40;58.50
22379;DHT22;11357;49.990;7.370;2024-01-10T09:29:45;0.60;58.50
22379;DHT22;11357;49.990;7.370;2024-01-10T09:32:10;0.70;58.40
22379;DHT22;11357;49.990;7.370;2024-01-10T09:34:36;0.90;58.30
22379;DHT22;11357;49.990;7.370;2024-01-10T09:37:02;1.10;58.10
22379;DHT22;11357;49.990;7.370;2024-01-10T09:39:27;1.20;57.90
22379;DHT22;11357;49.990;7.370;2024-01-10T09:41:53;1.30;57.60
22379;DHT22;11357;49.990;7.370;2024-01-10T09:44:20;1.40;57.50
22379;DHT22;11357;49.990;7.370;2024-01-10T09:46:50;1.60;57.40
22379;DHT22;11357;49.990;7.370;2024-01-10T09:49:17;1.80;57.20
22379;DHT22;11357;49.990;7.370;2024-01-10T09:51:42;1.90;56.90
22379;DHT22;11357;49.990;7.370;2024-01-10T09:54:09;2.00;56.90
22379;DHT22;11357;49.990;7.370;2024-01-10T09:56:34;2.00;56.80
22379;DHT22;11357;49.990;7.370;2024-01-10T09:59:01;2.10;56.70
22379;DHT22;11357;49.990;7.370;2024-01-10T10:01:30;2.20;56.60
22379;DHT22;11357;49.990;7.370;2024-01-10T10:42:47;2.90;56.00
22379;DHT22;11357;49.990;7.370;2024-01-10T10:45:17;2.80;55.80
22379;DHT22;11357;49.990;7.370;2024-01-10T10:47:46;2.70;55.80
22379;DHT22;11357;49.990;7.370;2024-01-10T10:50:26;2.60;56.10
22379;DHT22;11357;49.990;7.370;2024-01-10T10:52:55;2.70;56.20
22379;DHT22;11357;49.990;7.370;2024-01-10T10:55:22;2.60;56.20
22379;DHT22;11357;49.990;7.370;2024-01-10T10:57:49;2.50;56.30
22379;DHT22;11357;49.990;7.370;2024-01-10T11:00:18;2.60;56.40
22379;DHT22;11357;49.990;7.370;2024-01-10T11:02:44;2.50;56.40
22379;DHT22;11357;49.990;7.370;2024-01-10T11:05:11;2.60;56.50
22379;DHT22;11357;49.990;7.370;2024-01-10T11:07:41;2.60;56.50
22379;DHT22;11357;49.990;7.370;2024-01-10T11:10:21;2.60;56.50
22379;DHT22;11357;49.990;7.370;2024-01-10T11:16:10;2.90;56.70
22379;DHT22;11357;49.990;7.370;2024-01-10T11:18:54;3.20;56.50
22379;DHT22;11357;49.990;7.370;2024-01-10T11:23:59;3.70;55.70
22379;DHT22;11357;49.990;7.370;2024-01-10T11:26:25;3.80;55.50
22379;DHT22;11357;49.990;7.370;2024-01-10T11:28:51;3.80;55.50
22379;DHT22;11357;49.990;7.370;2024-01-10T11:31:31;3.80;55.50
22379;DHT22;11357;49.990;7.370;2024-01-10T11:33:58;3.60;55.60
22379;DHT22;11357;49.990;7.370;2024-01-10T11:36:24;3.50;55.90
22379;DHT22;11357;49.990;7.370;2024-01-10T11:46:48;3.30;56.90
22379;DHT22;11357;49.990;7.370;2024-01-10T11:49:16;3.20;57.00
22379;DHT22;11357;49.990;7.370;2024-01-10T11:51:43;3.20;57.00
22379;DHT22;11357;49.990;7.370;2024-01-10T11:54:09;3.20;57.20
22379;DHT22;11357;49.990;7.370;2024-01-10T11:59:07;3.30;57.40
22379;DHT22;11357;49.990;7.370;2024-01-10T12:01:39;3.30;57.50
22379;DHT22;11357;49.990;7.370;2024-01-10T12:04:05;3.20;57.80
22379;DHT22;11357;49.990;7.370;2024-01-10T12:06:33;3.20;58.00
22379;DHT22;11357;49.990;7.370;2024-01-10T12:08:59;3.20;58.10
22379;DHT22;11357;49.990;7.370;2024-01-10T12:11:28;3.20;58.10
22379;DHT22;11357;49.990;7.370;2024-01-10T12:13:54;3.10;58.00
22379;DHT22;11357;49.990;7.370;2024-01-10T12:16:20;3.10;58.10
22379;DHT22;11357;49.990;7.370;2024-01-10T12:18:48;3.10;58.20
22379;DHT22;11357;49.990;7.370;2024-01-10T12:21:14;3.10;58.30
22379;DHT22;11357;49.990;7.370;2024-01-10T12:23:39;3.10;59.00
22379;DHT22;11357;49.990;7.370;2024-01-10T12:26:08;3.10;58.50
22379;DHT22;11357;49.990;7.370;2024-01-10T12:28:35;3.10;58.70
22379;DHT22;11357;49.990;7.370;2024-01-10T12:31:01;3.10;58.70
22379;DHT22;11357;49.990;7.370;2024-01-10T12:33:28;3.10;58.80
22379;DHT22;11357;49.990;7.370;2024-01-10T12:36:08;3.10;58.80
22379;DHT22;11357;49.990;7.370;2024-01-10T12:38:38;3.00;58.90
22379;DHT22;11357;49.990;7.370;2024-01-10T12:41:05;3.00;58.90
22379;DHT22;11357;49.990;7.370;2024-01-10T12:43:31;3.00;58.90
22379;DHT22;11357;49.990;7.370;2024-01-10T12:46:11;3.10;59.00
22379;DHT22;11357;49.990;7.370;2024-01-10T12:48:41;3.10;59.20
22379;DHT22;11357;49.990;7.370;2024-01-10T12:51:08;3.10;59.20
22379;DHT22;11357;49.990;7.370;2024-01-10T12:53:43;3.10;59.20
22379;DHT22;11357;49.990;7.370;2024-01-10T12:56:10;3.20;59.30
22379;DHT22;11357;49.990;7.370;2024-01-10T12:58:40;3.20;59.30
22379;DHT22;11357;49.990;7.370;2024-01-10T13:01:09;3.20;59.30
22379;DHT22;11357;49.990;7.370;2024-01-10T13:03:36;3.20;59.30
22379;DHT22;11357;49.990;7.370;2024-01-10T13:06:01;3.30;59.30
22379;DHT22;11357;49.990;7.370;2024-01-10T13:08:27;3.20;59.30
22379;DHT22;11357;49.990;7.370;2024-01-10T13:10:53;3.20;59.30
22379;DHT22;11357;49.990;7.370;2024-01-10T13:13:19;3.20;59.50
22379;DHT22;11357;49.990;7.370;2024-01-10T13:15:47;3.20;59.70
22379;DHT22;11357;49.990;7.370;2024-01-10T13:18:13;3.20;59.80
22379;DHT22;11357;49.990;7.370;2024-01-10T13:20:43;3.20;59.90
22379;DHT22;11357;49.990;7.370;2024-01-10T13:23:09;3.20;60.00
22379;DHT22;11357;49.990;7.370;2024-01-10T13:25:35;3.20;60.00
22379;DHT22;11357;49.990;7.370;2024-01-10T13:28:01;3.30;60.00
22379;DHT22;11357;49.990;7.370;2024-01-10T13:30:27;3.30;60.10
22379;DHT22;11357;49.990;7.370;2024-01-10T13:32:53;3.30;60.10
22379;DHT22;11357;49.990;7.370;2024-01-10T13:35:19;3.40;60.10
22379;DHT22;11357;49.990;7.370;2024-01-10T13:37:46;3.40;60.10
22379;DHT22;11357;49.990;7.370;2024-01-10T13:40:12;3.40;60.20
22379;DHT22;11357;49.990;7.370;2024-01-10T13:42:41;3.50;60.30
22379;DHT22;11357;49.990;7.370;2024-01-10T13:45:07;3.50;60.40
22379;DHT22;11357;49.990;7.370;2024-01-10T13:47:34;3.50;60.40
22379;DHT22;11357;49.990;7.370;2024-01-10T13:50:00;3.50;60.40
22379;DHT22;11357;49.990;7.370;2024-01-10T13:52:26;3.40;60.50
22379;DHT22;11357;49.990;7.370;2024-01-10T13:54:52;3.30;60.60
22379;DHT22;11357;49.990;7.370;2024-01-10T13:57:18;3.30;60.70
22379;DHT22;11357;49.990;7.370;2024-01-10T13:59:44;3.30;60.90
22379;DHT22;11357;49.990;7.370;2024-01-10T14:04:45;3.20;61.10
22379;DHT22;11357;49.990;7.370;2024-01-10T14:07:11;3.20;61.20
22379;DHT22;11357;49.990;7.370;2024-01-10T14:09:36;3.20;61.30
22379;DHT22;11357;49.990;7.370;2024-01-10T14:14:37;3.30;61.20
22379;DHT22;11357;49.990;7.370;2024-01-10T14:17:03;3.30;61.10
22379;DHT22;11357;49.990;7.370;2024-01-10T14:19:31;3.20;61.10
22379;DHT22;11357;49.990;7.370;2024-01-10T14:24:32;3.10;61.20
22379;DHT22;11357;49.990;7.370;2024-01-10T14:26:58;3.10;61.30
22379;DHT22;11357;49.990;7.370;2024-01-10T14:29:24;3.00;61.40
22379;DHT22;11357;49.990;7.370;2024-01-10T14:31:49;3.00;61.50
22379;DHT22;11357;49.990;7.370;2024-01-10T14:34:15;3.00;61.60
22379;DHT22;11357;49.990;7.370;2024-01-10T14:36:41;3.00;61.60
22379;DHT22;11357;49.990;7.370;2024-01-10T14:39:07;2.90;61.60
22379;DHT22;11357;49.990;7.370;2024-01-10T14:41:33;2.90;61.70
22379;DHT22;11357;49.990;7.370;2024-01-10T14:44:00;2.90;61.70
22379;DHT22;11357;49.990;7.370;2024-01-10T14:46:26;2.80;61.80
22379;DHT22;11357;49.990;7.370;2024-01-10T14:48:54;2.80;61.80
22379;DHT22;11357;49.990;7.370;2024-01-10T14:51:19;2.80;61.90
22379;DHT22;11357;49.990;7.370;2024-01-10T14:53:45;2.80;62.00
22379;DHT22;11357;49.990;7.370;2024-01-10T14:56:11;2.70;62.00
22379;DHT22;11357;49.990;7.370;2024-01-10T14:58:36;2.80;62.10
22379;DHT22;11357;49.990;7.370;2024-01-10T15:01:02;2.80;62.10
22379;DHT22;11357;49.990;7.370;2024-01-10T15:06:06;2.80;62.10
22379;DHT22;11357;49.990;7.370;2024-01-10T15:08:32;2.70;62.10
22379;DHT22;11357;49.990;7.370;2024-01-10T15:10:59;2.60;62.10
22379;DHT22;11357;49.990;7.370;2024-01-10T15:18:35;2.60;63.00
22379;DHT22;11357;49.990;7.370;2024-01-10T15:21:01;2.50;62.30
22379;DHT22;11357;49.990;7.370;2024-01-10T15:23:27;2.50;62.40
22379;DHT22;11357;49.990;7.370;2024-01-10T15:25:52;2.50;62.50
22379;DHT22;11357;49.990;7.370;2024-01-10T15:28:18;2.50;62.50
22379;DHT22;11357;49.990;7.370;2024-01-10T15:30:44;2.40;62.50
22379;DHT22;11357;49.990;7.370;2024-01-10T15:33:10;2.40;62.60
22379;DHT22;11357;49.990;7.370;2024-01-10T15:35:36;2.40;62.70
22379;DHT22;11357;49.990;7.370;2024-01-10T15:38:02;2.30;62.80
22379;DHT22;11357;49.990;7.370;2024-01-10T15:40:28;2.30;62.70
22379;DHT22;11357;49.990;7.370;2024-01-10T15:42:53;2.20;62.80
22379;DHT22;11357;49.990;7.370;2024-01-10T15:45:19;2.20;62.80
22379;DHT22;11357;49.990;7.370;2024-01-10T15:47:44;2.10;62.80
22379;DHT22;11357;49.990;7.370;2024-01-10T15:50:10;2.10;63.00
22379;DHT22;11357;49.990;7.370;2024-01-10T16:02:57;1.80;63.20
22379;DHT22;11357;49.990;7.370;2024-01-10T16:05:23;1.80;63.40
22379;DHT22;11357;49.990;7.370;2024-01-10T16:07:50;1.70;63.50
22379;DHT22;11357;49.990;7.370;2024-01-10T16:10:16;1.70;63.60
22379;DHT22;11357;49.990;7.370;2024-01-10T16:12:43;1.60;63.70
22379;DHT22;11357;49.990;7.370;2024-01-10T16:15:09;1.60;63.80
22379;DHT22;11357;49.990;7.370;2024-01-10T16:17:35;1.50;63.90
22379;DHT22;11357;49.990;7.370;2024-01-10T16:20:01;1.40;64.00
22379;DHT22;11357;49.990;7.370;2024-01-10T16:22:27;1.40;64.10
22379;DHT22;11357;49.990;7.370;2024-01-10T16:24:53;1.40;64.20
22379;DHT22;11357;49.990;7.370;2024-01-10T16:27:19;1.30;64.10
22379;DHT22;11357;49.990;7.370;2024-01-10T16:29:44;1.30;64.30
22379;DHT22;11357;49.990;7.370;2024-01-10T16:45:13;1.20;64.70
22379;DHT22;11357;49.990;7.370;2024-01-10T16:47:38;1.20;64.70
22379;DHT22;11357;49.990;7.370;2024-01-10T16:50:04;1.20;64.70
22379;DHT22;11357;49.990;7.370;2024-01-10T16:52:30;1.20;64.70
22379;DHT22;11357;49.990;7.370;2024-01-10T16:54:56;1.20;64.70
22379;DHT22;11357;49.990;7.370;2024-01-10T16:57:21;1.20;64.70
22379;DHT22;11357;49.990;7.370;2024-01-10T16:59:47;1.10;64.60
22379;DHT22;11357;49.990;7.370;2024-01-10T17:02:13;1.10;64.70
22379;DHT22;11357;49.990;7.370;2024-01-10T17:04:39;1.10;64.80
22379;DHT22;11357;49.990;7.370;2024-01-10T17:07:05;1.00;64.70